sensor_id;sensor_type;location;lat;lon;timestamp;P1;durP1;ratioP1;P2;durP2;ratioP2
46355;SDS011;32066;49.474;11.106;2023-05-07T00:00:52;4.18;;;2.22;;
46355;SDS011;32066;49.474;11.106;2023-05-07T00:03:23;5.68;;;2.05;;
46355;SDS011;32066;49.474;11.106;2023-05-07T00:05:52;4.95;;;2.58;;
46355;SDS011;32066;49.474;11.106;2023-05-07T00:08:21;4.28;;;2.17;;
46355;SDS011;32066;49.474;11.106;2023-05-07T00:10:49;5.35;;;2.30;;
46355;SDS011;32066;49.474;11.106;2023-05-07T00:13:18;4.80;;;2.50;;
46355;SDS011;32066;49.474;11.106;2023-05-07T00:15:47;4.53;;;2.20;;
46355;SDS011;32066;49.474;11.106;2023-05-07T00:18:15;5.10;;;2.47;;
46355;SDS011;32066;49.474;11.106;2023-05-07T00:20:48;3.88;;;2.00;;
46355;SDS011;32066;49.474;11.106;2023-05-07T00:23:17;4.07;;;2.20;;
46355;SDS011;32066;49.474;11.106;2023-05-07T00:25:46;5.93;;;2.60;;
46355;SDS011;32066;49.474;11.106;2023-05-07T00:28:14;6.25;;;2.42;;
46355;SDS011;32066;49.474;11.106;2023-05-07T00:30:43;6.85;;;2.22;;
46355;SDS011;32066;49.474;11.106;2023-05-07T00:33:12;6.45;;;2.33;;
46355;SDS011;32066;49.474;11.106;2023-05-07T00:35:41;5.00;;;2.28;;
46355;SDS011;32066;49.474;11.106;2023-05-07T00:38:13;5.47;;;2.75;;
46355;SDS011;32066;49.474;11.106;2023-05-07T00:40:41;5.32;;;2.88;;
46355;SDS011;32066;49.474;11.106;2023-05-07T00:43:10;6.93;;;2.75;;
46355;SDS011;32066;49.474;11.106;2023-05-07T00:45:39;7.55;;;3.40;;
46355;SDS011;32066;49.474;11.106;2023-05-07T00:48:07;6.22;;;3.22;;
46355;SDS011;32066;49.474;11.106;2023-05-07T00:50:36;6.47;;;3.05;;
46355;SDS011;32066;49.474;11.106;2023-05-07T00:53:05;4.40;;;2.47;;
46355;SDS011;32066;49.474;11.106;2023-05-07T00:55:37;6.00;;;2.45;;
46355;SDS011;32066;49.474;11.106;2023-05-07T00:58:06;4.75;;;2.72;;
46355;SDS011;32066;49.474;11.106;2023-05-07T01:00:35;6.28;;;2.90;;
46355;SDS011;32066;49.474;11.106;2023-05-07T01:03:04;7.00;;;2.58;;
46355;SDS011;32066;49.474;11.106;2023-05-07T01:05:33;4.88;;;2.47;;
46355;SDS011;32066;49.474;11.106;2023-05-07T01:08:03;7.25;;;2.95;;
46355;SDS011;32066;49.474;11.106;2023-05-07T01:10:32;5.47;;;2.75;;
46355;SDS011;32066;49.474;11.106;2023-05-07T01:13:04;4.97;;;2.60;;
46355;SDS011;32066;49.474;11.106;2023-05-07T01:15:33;5.93;;;2.60;;
46355;SDS011;32066;49.474;11.106;2023-05-07T01:18:03;7.78;;;3.22;;
46355;SDS011;32066;49.474;11.106;2023-05-07T01:20:34;5.57;;;2.30;;
46355;SDS011;32066;49.474;11.106;2023-05-07T01:23:05;6.18;;;2.80;;
46355;SDS011;32066;49.474;11.106;2023-05-07T01:25:35;5.88;;;2.70;;
46355;SDS011;32066;49.474;11.106;2023-05-07T01:28:05;6.80;;;2.65;;
46355;SDS011;32066;49.474;11.106;2023-05-07T01:30:36;4.80;;;2.67;;
46355;SDS011;32066;49.474;11.106;2023-05-07T01:33:09;5.45;;;2.63;;
46355;SDS011;32066;49.474;11.106;2023-05-07T01:35:41;5.38;;;2.45;;
46355;SDS011;32066;49.474;11.106;2023-05-07T01:38:15;5.32;;;2.65;;
46355;SDS011;32066;49.474;11.106;2023-05-07T01:40:45;6.82;;;2.80;;
46355;SDS011;32066;49.474;11.106;2023-05-07T01:43:14;4.80;;;2.58;;
46355;SDS011;32066;49.474;11.106;2023-05-07T01:45:43;6.43;;;2.85;;
46355;SDS011;32066;49.474;11.106;2023-05-07T01:48:14;7.38;;;3.38;;
46355;SDS011;32066;49.474;11.106;2023-05-07T01:50:43;4.32;;;2.85;;
46355;SDS011;32066;49.474;11.106;2023-05-07T01:53:15;5.50;;;3.35;;
46355;SDS011;32066;49.474;11.106;2023-05-07T01:55:44;5.65;;;2.97;;
46355;SDS011;32066;49.474;11.106;2023-05-07T01:58:13;4.70;;;2.75;;
46355;SDS011;32066;49.474;11.106;2023-05-07T02:00:42;5.00;;;3.10;;
46355;SDS011;32066;49.474;11.106;2023-05-07T02:03:11;5.47;;;3.25;;
46355;SDS011;32066;49.474;11.106;2023-05-07T02:05:51;5.95;;;3.10;;
46355;SDS011;32066;49.474;11.106;2023-05-07T02:08:37;6.70;;;3.60;;
46355;SDS011;32066;49.474;11.106;2023-05-07T02:11:05;6.07;;;3.80;;
46355;SDS011;32066;49.474;11.106;2023-05-07T02:13:35;6.72;;;4.78;;
46355;SDS011;32066;49.474;11.106;2023-05-07T02:16:04;9.68;;;5.47;;
46355;SDS011;32066;49.474;11.106;2023-05-07T02:18:33;8.10;;;3.97;;
46355;SDS011;32066;49.474;11.106;2023-05-07T02:21:04;5.85;;;3.35;;
46355;SDS011;32066;49.474;11.106;2023-05-07T02:23:32;4.57;;;3.10;;
46355;SDS011;32066;49.474;11.106;2023-05-07T02:26:04;8.02;;;3.70;;
46355;SDS011;32066;49.474;11.106;2023-05-07T02:28:32;5.78;;;3.80;;
46355;SDS011;32066;49.474;11.106;2023-05-07T02:31:04;5.85;;;3.60;;
46355;SDS011;32066;49.474;11.106;2023-05-07T02:33:33;5.72;;;3.55;;
46355;SDS011;32066;49.474;11.106;2023-05-07T02:36:05;7.13;;;3.90;;
46355;SDS011;32066;49.474;11.106;2023-05-07T02:38:39;7.00;;;3.90;;
46355;SDS011;32066;49.474;11.106;2023-05-07T02:41:10;5.75;;;3.55;;
46355;SDS011;32066;49.474;11.106;2023-05-07T02:43:39;5.82;;;3.33;;
46355;SDS011;32066;49.474;11.106;2023-05-07T02:46:09;7.38;;;4.05;;
46355;SDS011;32066;49.474;11.106;2023-05-07T02:48:42;8.00;;;4.18;;
46355;SDS011;32066;49.474;11.106;2023-05-07T02:51:10;5.97;;;4.25;;
46355;SDS011;32066;49.474;11.106;2023-05-07T02:53:41;7.90;;;4.63;;
46355;SDS011;32066;49.474;11.106;2023-05-07T02:56:12;6.38;;;4.30;;
46355;SDS011;32066;49.474;11.106;2023-05-07T02:58:41;6.45;;;4.22;;
46355;SDS011;32066;49.474;11.106;2023-05-07T03:01:10;10.40;;;4.78;;
46355;SDS011;32066;49.474;11.106;2023-05-07T03:04:06;6.25;;;4.70;;
46355;SDS011;32066;49.474;11.106;2023-05-07T03:06:34;8.57;;;5.68;;
46355;SDS011;32066;49.474;11.106;2023-05-07T03:09:03;6.78;;;4.97;;
46355;SDS011;32066;49.474;11.106;2023-05-07T03:11:34;7.93;;;4.75;;
46355;SDS011;32066;49.474;11.106;2023-05-07T03:14:03;7.13;;;4.60;;
46355;SDS011;32066;49.474;11.106;2023-05-07T03:16:32;6.97;;;4.80;;
46355;SDS011;32066;49.474;11.106;2023-05-07T03:19:00;8.10;;;4.90;;
46355;SDS011;32066;49.474;11.106;2023-05-07T03:21:29;8.68;;;5.15;;
46355;SDS011;32066;49.474;11.106;2023-05-07T03:23:59;8.45;;;5.00;;
46355;SDS011;32066;49.474;11.106;2023-05-07T03:26:28;7.63;;;5.00;;
46355;SDS011;32066;49.474;11.106;2023-05-07T03:28:59;7.28;;;4.63;;
46355;SDS011;32066;49.474;11.106;2023-05-07T03:31:28;6.78;;;4.82;;
46355;SDS011;32066;49.474;11.106;2023-05-07T03:33:57;11.00;;;5.28;;
46355;SDS011;32066;49.474;11.106;2023-05-07T03:36:26;8.13;;;5.38;;
46355;SDS011;32066;49.474;11.106;2023-05-07T03:38:55;6.45;;;4.60;;
46355;SDS011;32066;49.474;11.106;2023-05-07T03:41:32;7.85;;;5.10;;
46355;SDS011;32066;49.474;11.106;2023-05-07T03:44:03;7.13;;;5.05;;
46355;SDS011;32066;49.474;11.106;2023-05-07T03:46:32;6.88;;;5.22;;
46355;SDS011;32066;49.474;11.106;2023-05-07T03:49:02;10.27;;;5.28;;
46355;SDS011;32066;49.474;11.106;2023-05-07T03:51:31;6.57;;;5.20;;
46355;SDS011;32066;49.474;11.106;2023-05-07T03:54:02;7.07;;;5.13;;
46355;SDS011;32066;49.474;11.106;2023-05-07T03:56:32;9.73;;;5.35;;
46355;SDS011;32066;49.474;11.106;2023-05-07T03:59:01;8.68;;;5.40;;
46355;SDS011;32066;49.474;11.106;2023-05-07T04:01:32;9.73;;;5.47;;
46355;SDS011;32066;49.474;11.106;2023-05-07T04:04:01;8.98;;;6.03;;
46355;SDS011;32066;49.474;11.106;2023-05-07T04:06:30;8.05;;;5.35;;
46355;SDS011;32066;49.474;11.106;2023-05-07T04:08:59;10.63;;;5.82;;
46355;SDS011;32066;49.474;11.106;2023-05-07T04:11:28;7.88;;;5.68;;
46355;SDS011;32066;49.474;11.106;2023-05-07T04:13:57;8.40;;;5.70;;
46355;SDS011;32066;49.474;11.106;2023-05-07T04:16:28;8.75;;;5.68;;
46355;SDS011;32066;49.474;11.106;2023-05-07T04:18:57;11.15;;;5.85;;
46355;SDS011;32066;49.474;11.106;2023-05-07T04:21:26;7.25;;;5.50;;
46355;SDS011;32066;49.474;11.106;2023-05-07T04:23:55;8.85;;;5.70;;
46355;SDS011;32066;49.474;11.106;2023-05-07T04:26:24;8.88;;;5.90;;
46355;SDS011;32066;49.474;11.106;2023-05-07T04:28:53;8.63;;;6.45;;
46355;SDS011;32066;49.474;11.106;2023-05-07T04:31:23;8.70;;;5.60;;
46355;SDS011;32066;49.474;11.106;2023-05-07T04:33:56;8.73;;;5.43;;
46355;SDS011;32066;49.474;11.106;2023-05-07T04:36:25;10.15;;;6.25;;
46355;SDS011;32066;49.474;11.106;2023-05-07T04:38:59;8.48;;;6.90;;
46355;SDS011;32066;49.474;11.106;2023-05-07T04:41:28;8.75;;;6.18;;
46355;SDS011;32066;49.474;11.106;2023-05-07T04:43:57;7.47;;;6.30;;
46355;SDS011;32066;49.474;11.106;2023-05-07T04:46:29;8.43;;;6.50;;
46355;SDS011;32066;49.474;11.106;2023-05-07T04:49:00;8.63;;;6.63;;
46355;SDS011;32066;49.474;11.106;2023-05-07T04:51:30;8.52;;;5.82;;
46355;SDS011;32066;49.474;11.106;2023-05-07T04:54:00;9.68;;;5.95;;
46355;SDS011;32066;49.474;11.106;2023-05-07T04:56:30;8.95;;;6.65;;
46355;SDS011;32066;49.474;11.106;2023-05-07T04:58:59;8.75;;;6.50;;
46355;SDS011;32066;49.474;11.106;2023-05-07T05:01:29;9.10;;;6.38;;
46355;SDS011;32066;49.474;11.106;2023-05-07T05:04:01;9.63;;;6.60;;
46355;SDS011;32066;49.474;11.106;2023-05-07T05:06:30;10.00;;;6.40;;
46355;SDS011;32066;49.474;11.106;2023-05-07T05:09:01;8.73;;;6.40;;
46355;SDS011;32066;49.474;11.106;2023-05-07T05:11:30;9.07;;;6.95;;
46355;SDS011;32066;49.474;11.106;2023-05-07T05:13:59;9.25;;;6.80;;
46355;SDS011;32066;49.474;11.106;2023-05-07T05:16:28;9.32;;;6.55;;
46355;SDS011;32066;49.474;11.106;2023-05-07T05:18:57;8.38;;;6.40;;
46355;SDS011;32066;49.474;11.106;2023-05-07T05:21:28;9.88;;;5.97;;
46355;SDS011;32066;49.474;11.106;2023-05-07T05:24:04;11.68;;;6.60;;
46355;SDS011;32066;49.474;11.106;2023-05-07T05:26:33;10.55;;;6.70;;
46355;SDS011;32066;49.474;11.106;2023-05-07T05:29:02;12.60;;;6.82;;
46355;SDS011;32066;49.474;11.106;2023-05-07T05:31:31;10.95;;;7.28;;
46355;SDS011;32066;49.474;11.106;2023-05-07T05:34:00;9.32;;;6.22;;
46355;SDS011;32066;49.474;11.106;2023-05-07T05:36:33;9.32;;;6.20;;
46355;SDS011;32066;49.474;11.106;2023-05-07T05:39:02;8.52;;;6.00;;
46355;SDS011;32066;49.474;11.106;2023-05-07T05:41:32;9.27;;;6.45;;
46355;SDS011;32066;49.474;11.106;2023-05-07T05:44:01;8.60;;;6.22;;
46355;SDS011;32066;49.474;11.106;2023-05-07T05:46:30;9.25;;;6.93;;
46355;SDS011;32066;49.474;11.106;2023-05-07T05:48:59;10.32;;;6.78;;
46355;SDS011;32066;49.474;11.106;2023-05-07T05:51:27;10.02;;;6.97;;
46355;SDS011;32066;49.474;11.106;2023-05-07T05:53:59;9.85;;;7.40;;
46355;SDS011;32066;49.474;11.106;2023-05-07T05:56:28;9.60;;;7.00;;
46355;SDS011;32066;49.474;11.106;2023-05-07T05:58:57;9.00;;;6.95;;
46355;SDS011;32066;49.474;11.106;2023-05-07T06:01:25;10.70;;;6.78;;
46355;SDS011;32066;49.474;11.106;2023-05-07T06:03:56;8.40;;;6.93;;
46355;SDS011;32066;49.474;11.106;2023-05-07T06:06:25;9.38;;;7.03;;
46355;SDS011;32066;49.474;11.106;2023-05-07T06:08:54;10.38;;;6.93;;
46355;SDS011;32066;49.474;11.106;2023-05-07T06:11:31;9.65;;;7.03;;
46355;SDS011;32066;49.474;11.106;2023-05-07T06:14:00;9.65;;;6.78;;
46355;SDS011;32066;49.474;11.106;2023-05-07T06:16:30;12.50;;;7.25;;
46355;SDS011;32066;49.474;11.106;2023-05-07T06:18:58;8.80;;;6.47;;
46355;SDS011;32066;49.474;11.106;2023-05-07T06:21:27;12.52;;;6.80;;
46355;SDS011;32066;49.474;11.106;2023-05-07T06:23:56;8.13;;;6.30;;
46355;SDS011;32066;49.474;11.106;2023-05-07T06:26:24;11.07;;;6.93;;
46355;SDS011;32066;49.474;11.106;2023-05-07T06:28:56;9.57;;;7.22;;
46355;SDS011;32066;49.474;11.106;2023-05-07T06:31:28;10.88;;;6.22;;
46355;SDS011;32066;49.474;11.106;2023-05-07T06:34:02;8.95;;;6.63;;
46355;SDS011;32066;49.474;11.106;2023-05-07T06:36:35;9.43;;;6.80;;
46355;SDS011;32066;49.474;11.106;2023-05-07T06:39:18;9.32;;;6.75;;
46355;SDS011;32066;49.474;11.106;2023-05-07T06:41:46;8.50;;;6.38;;
46355;SDS011;32066;49.474;11.106;2023-05-07T06:44:25;9.95;;;5.95;;
46355;SDS011;32066;49.474;11.106;2023-05-07T06:47:06;9.63;;;6.10;;
46355;SDS011;32066;49.474;11.106;2023-05-07T06:49:37;9.02;;;6.45;;
46355;SDS011;32066;49.474;11.106;2023-05-07T06:52:06;9.45;;;6.65;;
46355;SDS011;32066;49.474;11.106;2023-05-07T06:54:35;10.25;;;6.78;;
46355;SDS011;32066;49.474;11.106;2023-05-07T06:57:04;9.30;;;6.25;;
46355;SDS011;32066;49.474;11.106;2023-05-07T06:59:35;12.05;;;7.00;;
46355;SDS011;32066;49.474;11.106;2023-05-07T07:02:04;10.02;;;6.88;;
46355;SDS011;32066;49.474;11.106;2023-05-07T07:04:34;9.27;;;6.45;;
46355;SDS011;32066;49.474;11.106;2023-05-07T07:07:06;10.38;;;6.25;;
46355;SDS011;32066;49.474;11.106;2023-05-07T07:09:35;8.88;;;6.53;;
46355;SDS011;32066;49.474;11.106;2023-05-07T07:12:05;8.98;;;6.07;;
46355;SDS011;32066;49.474;11.106;2023-05-07T07:14:39;8.00;;;6.25;;
46355;SDS011;32066;49.474;11.106;2023-05-07T07:17:08;8.93;;;6.45;;
46355;SDS011;32066;49.474;11.106;2023-05-07T07:19:37;7.32;;;5.95;;
46355;SDS011;32066;49.474;11.106;2023-05-07T07:22:05;9.05;;;6.13;;
46355;SDS011;32066;49.474;11.106;2023-05-07T07:24:34;10.73;;;5.80;;
46355;SDS011;32066;49.474;11.106;2023-05-07T07:27:05;9.48;;;5.95;;
46355;SDS011;32066;49.474;11.106;2023-05-07T07:29:34;8.38;;;5.82;;
46355;SDS011;32066;49.474;11.106;2023-05-07T07:32:06;7.72;;;5.47;;
46355;SDS011;32066;49.474;11.106;2023-05-07T07:34:36;8.80;;;5.85;;
46355;SDS011;32066;49.474;11.106;2023-05-07T07:37:05;7.80;;;5.93;;
46355;SDS011;32066;49.474;11.106;2023-05-07T07:39:36;8.20;;;5.38;;
46355;SDS011;32066;49.474;11.106;2023-05-07T07:42:07;10.32;;;5.50;;
46355;SDS011;32066;49.474;11.106;2023-05-07T07:44:37;8.30;;;5.75;;
46355;SDS011;32066;49.474;11.106;2023-05-07T07:47:11;8.85;;;5.60;;
46355;SDS011;32066;49.474;11.106;2023-05-07T07:49:40;7.93;;;5.40;;
46355;SDS011;32066;49.474;11.106;2023-05-07T07:52:10;7.10;;;5.60;;
46355;SDS011;32066;49.474;11.106;2023-05-07T07:54:40;7.72;;;5.53;;
46355;SDS011;32066;49.474;11.106;2023-05-07T07:57:09;8.98;;;6.00;;
46355;SDS011;32066;49.474;11.106;2023-05-07T07:59:37;7.30;;;5.30;;
46355;SDS011;32066;49.474;11.106;2023-05-07T08:02:11;7.72;;;5.60;;
46355;SDS011;32066;49.474;11.106;2023-05-07T08:04:40;7.70;;;5.68;;
46355;SDS011;32066;49.474;11.106;2023-05-07T08:07:09;8.82;;;5.63;;
46355;SDS011;32066;49.474;11.106;2023-05-07T08:09:41;7.70;;;5.72;;
46355;SDS011;32066;49.474;11.106;2023-05-07T08:12:10;10.32;;;5.93;;
46355;SDS011;32066;49.474;11.106;2023-05-07T08:14:38;7.80;;;5.10;;
46355;SDS011;32066;49.474;11.106;2023-05-07T08:17:08;8.75;;;5.38;;
46355;SDS011;32066;49.474;11.106;2023-05-07T08:19:41;12.95;;;5.97;;
46355;SDS011;32066;49.474;11.106;2023-05-07T08:22:12;12.68;;;5.72;;
46355;SDS011;32066;49.474;11.106;2023-05-07T08:24:45;9.50;;;5.80;;
46355;SDS011;32066;49.474;11.106;2023-05-07T08:27:14;8.60;;;5.45;;
46355;SDS011;32066;49.474;11.106;2023-05-07T08:29:43;8.75;;;5.85;;
46355;SDS011;32066;49.474;11.106;2023-05-07T08:32:18;10.07;;;5.90;;
46355;SDS011;32066;49.474;11.106;2023-05-07T08:34:47;9.65;;;5.68;;
46355;SDS011;32066;49.474;11.106;2023-05-07T08:37:16;11.13;;;5.75;;
46355;SDS011;32066;49.474;11.106;2023-05-07T08:39:45;10.45;;;5.40;;
46355;SDS011;32066;49.474;11.106;2023-05-07T08:42:19;8.95;;;5.47;;
46355;SDS011;32066;49.474;11.106;2023-05-07T08:44:51;7.45;;;5.60;;
46355;SDS011;32066;49.474;11.106;2023-05-07T08:47:26;7.82;;;5.68;;
46355;SDS011;32066;49.474;11.106;2023-05-07T08:50:01;8.65;;;5.05;;
46355;SDS011;32066;49.474;11.106;2023-05-07T08:52:30;7.65;;;5.10;;
46355;SDS011;32066;49.474;11.106;2023-05-07T08:54:59;7.80;;;4.82;;
46355;SDS011;32066;49.474;11.106;2023-05-07T08:57:30;7.28;;;5.20;;
46355;SDS011;32066;49.474;11.106;2023-05-07T08:59:59;8.18;;;5.13;;
46355;SDS011;32066;49.474;11.106;2023-05-07T09:02:30;7.25;;;4.60;;
46355;SDS011;32066;49.474;11.106;2023-05-07T09:04:59;7.38;;;5.35;;
46355;SDS011;32066;49.474;11.106;2023-05-07T09:07:28;7.05;;;4.95;;
46355;SDS011;32066;49.474;11.106;2023-05-07T09:10:00;7.80;;;5.22;;
46355;SDS011;32066;49.474;11.106;2023-05-07T09:12:31;8.07;;;5.10;;
46355;SDS011;32066;49.474;11.106;2023-05-07T09:15:01;7.22;;;4.95;;
46355;SDS011;32066;49.474;11.106;2023-05-07T09:17:33;7.22;;;5.10;;
46355;SDS011;32066;49.474;11.106;2023-05-07T09:20:02;8.82;;;5.68;;
46355;SDS011;32066;49.474;11.106;2023-05-07T09:22:32;8.02;;;5.32;;
46355;SDS011;32066;49.474;11.106;2023-05-07T09:25:05;7.13;;;4.45;;
46355;SDS011;32066;49.474;11.106;2023-05-07T09:27:36;7.80;;;4.90;;
46355;SDS011;32066;49.474;11.106;2023-05-07T09:30:06;9.80;;;5.35;;
46355;SDS011;32066;49.474;11.106;2023-05-07T09:32:38;7.63;;;5.28;;
46355;SDS011;32066;49.474;11.106;2023-05-07T09:35:16;6.85;;;4.53;;
46355;SDS011;32066;49.474;11.106;2023-05-07T09:37:52;7.47;;;4.55;;
46355;SDS011;32066;49.474;11.106;2023-05-07T09:40:21;7.45;;;5.00;;
46355;SDS011;32066;49.474;11.106;2023-05-07T09:42:52;6.85;;;4.70;;
46355;SDS011;32066;49.474;11.106;2023-05-07T09:45:22;10.15;;;5.40;;
46355;SDS011;32066;49.474;11.106;2023-05-07T09:47:56;6.93;;;4.68;;
46355;SDS011;32066;49.474;11.106;2023-05-07T09:50:27;9.05;;;5.60;;
46355;SDS011;32066;49.474;11.106;2023-05-07T09:52:57;8.15;;;4.90;;
46355;SDS011;32066;49.474;11.106;2023-05-07T09:55:26;6.60;;;4.80;;
46355;SDS011;32066;49.474;11.106;2023-05-07T09:57:55;7.97;;;5.03;;
46355;SDS011;32066;49.474;11.106;2023-05-07T10:00:28;7.95;;;4.95;;
46355;SDS011;32066;49.474;11.106;2023-05-07T10:03:08;7.22;;;4.32;;
46355;SDS011;32066;49.474;11.106;2023-05-07T10:05:47;6.07;;;4.30;;
46355;SDS011;32066;49.474;11.106;2023-05-07T10:08:18;6.78;;;4.45;;
46355;SDS011;32066;49.474;11.106;2023-05-07T10:10:50;6.22;;;4.10;;
46355;SDS011;32066;49.474;11.106;2023-05-07T10:13:22;7.72;;;4.75;;
46355;SDS011;32066;49.474;11.106;2023-05-07T10:15:55;6.40;;;4.47;;
46355;SDS011;32066;49.474;11.106;2023-05-07T10:18:30;7.30;;;4.40;;
46355;SDS011;32066;49.474;11.106;2023-05-07T10:21:07;9.48;;;4.60;;
46355;SDS011;32066;49.474;11.106;2023-05-07T10:23:39;6.20;;;4.55;;
46355;SDS011;32066;49.474;11.106;2023-05-07T10:26:10;6.20;;;4.40;;
46355;SDS011;32066;49.474;11.106;2023-05-07T10:28:41;7.25;;;4.78;;
46355;SDS011;32066;49.474;11.106;2023-05-07T10:31:17;7.55;;;4.25;;
46355;SDS011;32066;49.474;11.106;2023-05-07T10:34:00;6.95;;;4.20;;
46355;SDS011;32066;49.474;11.106;2023-05-07T10:36:34;8.00;;;4.03;;
46355;SDS011;32066;49.474;11.106;2023-05-07T10:39:05;9.07;;;4.65;;
46355;SDS011;32066;49.474;11.106;2023-05-07T10:41:35;7.15;;;4.40;;
46355;SDS011;32066;49.474;11.106;2023-05-07T10:44:04;6.22;;;4.20;;
46355;SDS011;32066;49.474;11.106;2023-05-07T10:46:35;9.35;;;4.30;;
46355;SDS011;32066;49.474;11.106;2023-05-07T10:49:24;5.82;;;3.85;;
46355;SDS011;32066;49.474;11.106;2023-05-07T10:52:10;7.65;;;4.03;;
46355;SDS011;32066;49.474;11.106;2023-05-07T10:54:46;7.57;;;4.45;;
46355;SDS011;32066;49.474;11.106;2023-05-07T10:57:35;7.10;;;4.20;;
46355;SDS011;32066;49.474;11.106;2023-05-07T11:03:19;6.78;;;3.97;;
46355;SDS011;32066;49.474;11.106;2023-05-07T11:08:57;6.93;;;3.83;;
46355;SDS011;32066;49.474;11.106;2023-05-07T11:11:47;5.40;;;3.85;;
46355;SDS011;32066;49.474;11.106;2023-05-07T11:14:44;5.28;;;3.45;;
46355;SDS011;32066;49.474;11.106;2023-05-07T11:17:30;5.82;;;4.18;;
46355;SDS011;32066;49.474;11.106;2023-05-07T11:20:04;5.35;;;3.42;;
46355;SDS011;32066;49.474;11.106;2023-05-07T11:22:48;7.85;;;4.22;;
46355;SDS011;32066;49.474;11.106;2023-05-07T11:25:30;14.07;;;11.07;;
46355;SDS011;32066;49.474;11.106;2023-05-07T11:28:09;8.70;;;6.25;;
46355;SDS011;32066;49.474;11.106;2023-05-07T11:30:44;6.05;;;4.05;;
46355;SDS011;32066;49.474;11.106;2023-05-07T11:33:16;9.02;;;4.25;;
46355;SDS011;32066;49.474;11.106;2023-05-07T11:35:48;6.85;;;3.60;;
46355;SDS011;32066;49.474;11.106;2023-05-07T11:38:24;7.35;;;4.05;;
46355;SDS011;32066;49.474;11.106;2023-05-07T11:40:54;6.68;;;3.50;;
46355;SDS011;32066;49.474;11.106;2023-05-07T11:43:24;5.18;;;3.70;;
46355;SDS011;32066;49.474;11.106;2023-05-07T11:45:52;5.13;;;3.38;;
46355;SDS011;32066;49.474;11.106;2023-05-07T11:48:21;5.38;;;3.60;;
46355;SDS011;32066;49.474;11.106;2023-05-07T11:50:50;6.70;;;3.65;;
46355;SDS011;32066;49.474;11.106;2023-05-07T11:53:20;5.53;;;3.75;;
46355;SDS011;32066;49.474;11.106;2023-05-07T11:55:55;5.80;;;4.05;;
46355;SDS011;32066;49.474;11.106;2023-05-07T11:58:24;5.32;;;3.38;;
46355;SDS011;32066;49.474;11.106;2023-05-07T12:00:53;6.38;;;3.53;;
46355;SDS011;32066;49.474;11.106;2023-05-07T12:03:22;5.45;;;3.30;;
46355;SDS011;32066;49.474;11.106;2023-05-07T12:05:50;7.15;;;3.20;;
46355;SDS011;32066;49.474;11.106;2023-05-07T12:08:20;5.00;;;2.90;;
46355;SDS011;32066;49.474;11.106;2023-05-07T12:10:49;5.00;;;3.20;;
46355;SDS011;32066;49.474;11.106;2023-05-07T12:13:22;6.50;;;3.65;;
46355;SDS011;32066;49.474;11.106;2023-05-07T12:15:51;8.00;;;3.70;;
46355;SDS011;32066;49.474;11.106;2023-05-07T12:18:21;8.75;;;5.00;;
46355;SDS011;32066;49.474;11.106;2023-05-07T12:20:50;8.68;;;5.30;;
46355;SDS011;32066;49.474;11.106;2023-05-07T12:23:19;7.22;;;4.70;;
46355;SDS011;32066;49.474;11.106;2023-05-07T12:25:48;9.45;;;5.60;;
46355;SDS011;32066;49.474;11.106;2023-05-07T12:28:17;7.80;;;5.90;;
46355;SDS011;32066;49.474;11.106;2023-05-07T12:30:50;7.38;;;5.10;;
46355;SDS011;32066;49.474;11.106;2023-05-07T12:33:25;6.95;;;3.80;;
46355;SDS011;32066;49.474;11.106;2023-05-07T12:35:56;7.05;;;3.70;;
46355;SDS011;32066;49.474;11.106;2023-05-07T12:38:26;7.45;;;4.05;;
46355;SDS011;32066;49.474;11.106;2023-05-07T12:40:54;5.70;;;3.88;;
46355;SDS011;32066;49.474;11.106;2023-05-07T12:43:27;5.20;;;3.40;;
46355;SDS011;32066;49.474;11.106;2023-05-07T12:45:56;12.20;;;4.65;;
46355;SDS011;32066;49.474;11.106;2023-05-07T12:48:27;5.72;;;3.70;;
46355;SDS011;32066;49.474;11.106;2023-05-07T12:50:56;7.40;;;4.05;;
46355;SDS011;32066;49.474;11.106;2023-05-07T12:53:27;5.15;;;3.58;;
46355;SDS011;32066;49.474;11.106;2023-05-07T12:55:56;7.43;;;3.65;;
46355;SDS011;32066;49.474;11.106;2023-05-07T12:58:30;4.75;;;3.30;;
46355;SDS011;32066;49.474;11.106;2023-05-07T13:01:01;6.75;;;3.83;;
46355;SDS011;32066;49.474;11.106;2023-05-07T13:03:33;4.68;;;3.38;;
46355;SDS011;32066;49.474;11.106;2023-05-07T13:06:03;7.65;;;3.40;;
46355;SDS011;32066;49.474;11.106;2023-05-07T13:08:35;12.52;;;3.42;;
46355;SDS011;32066;49.474;11.106;2023-05-07T13:11:07;6.95;;;4.00;;
46355;SDS011;32066;49.474;11.106;2023-05-07T13:13:39;7.72;;;3.60;;
46355;SDS011;32066;49.474;11.106;2023-05-07T13:16:09;6.57;;;3.50;;
46355;SDS011;32066;49.474;11.106;2023-05-07T13:18:39;5.60;;;3.95;;
46355;SDS011;32066;49.474;11.106;2023-05-07T13:21:10;7.85;;;4.30;;
46355;SDS011;32066;49.474;11.106;2023-05-07T13:23:40;7.55;;;3.88;;
46355;SDS011;32066;49.474;11.106;2023-05-07T13:26:09;6.35;;;4.00;;
46355;SDS011;32066;49.474;11.106;2023-05-07T13:28:40;11.85;;;4.05;;
46355;SDS011;32066;49.474;11.106;2023-05-07T13:31:09;4.47;;;2.88;;
46355;SDS011;32066;49.474;11.106;2023-05-07T13:33:38;6.38;;;3.20;;
46355;SDS011;32066;49.474;11.106;2023-05-07T13:36:07;5.57;;;3.17;;
46355;SDS011;32066;49.474;11.106;2023-05-07T13:38:35;5.47;;;3.20;;
46355;SDS011;32066;49.474;11.106;2023-05-07T13:41:04;5.60;;;3.78;;
46355;SDS011;32066;49.474;11.106;2023-05-07T13:43:33;7.38;;;4.13;;
46355;SDS011;32066;49.474;11.106;2023-05-07T13:46:04;7.18;;;3.35;;
46355;SDS011;32066;49.474;11.106;2023-05-07T13:48:33;7.50;;;3.33;;
46355;SDS011;32066;49.474;11.106;2023-05-07T13:51:01;5.10;;;3.13;;
46355;SDS011;32066;49.474;11.106;2023-05-07T13:53:30;4.60;;;3.17;;
46355;SDS011;32066;49.474;11.106;2023-05-07T13:55:59;5.50;;;3.30;;
46355;SDS011;32066;49.474;11.106;2023-05-07T13:58:29;4.97;;;3.20;;
46355;SDS011;32066;49.474;11.106;2023-05-07T14:00:58;4.75;;;3.00;;
46355;SDS011;32066;49.474;11.106;2023-05-07T14:03:29;5.38;;;3.10;;
46355;SDS011;32066;49.474;11.106;2023-05-07T14:05:59;4.97;;;3.10;;
46355;SDS011;32066;49.474;11.106;2023-05-07T14:08:27;6.18;;;3.88;;
46355;SDS011;32066;49.474;11.106;2023-05-07T14:10:56;5.13;;;3.20;;
46355;SDS011;32066;49.474;11.106;2023-05-07T14:13:25;6.85;;;3.13;;
46355;SDS011;32066;49.474;11.106;2023-05-07T14:15:55;4.80;;;3.10;;
46355;SDS011;32066;49.474;11.106;2023-05-07T14:18:24;6.63;;;3.40;;
46355;SDS011;32066;49.474;11.106;2023-05-07T14:20:56;4.80;;;3.20;;
46355;SDS011;32066;49.474;11.106;2023-05-07T14:23:25;7.43;;;4.47;;
46355;SDS011;32066;49.474;11.106;2023-05-07T14:25:54;7.20;;;4.10;;
46355;SDS011;32066;49.474;11.106;2023-05-07T14:28:23;6.05;;;4.03;;
46355;SDS011;32066;49.474;11.106;2023-05-07T14:30:52;6.63;;;4.18;;
46355;SDS011;32066;49.474;11.106;2023-05-07T14:33:20;6.65;;;3.90;;
46355;SDS011;32066;49.474;11.106;2023-05-07T14:35:49;8.43;;;3.72;;
46355;SDS011;32066;49.474;11.106;2023-05-07T14:38:21;6.13;;;4.00;;
46355;SDS011;32066;49.474;11.106;2023-05-07T14:40:50;5.80;;;3.80;;
46355;SDS011;32066;49.474;11.106;2023-05-07T14:43:21;6.60;;;3.70;;
46355;SDS011;32066;49.474;11.106;2023-05-07T14:45:50;6.38;;;3.70;;
46355;SDS011;32066;49.474;11.106;2023-05-07T14:48:18;8.57;;;5.28;;
46355;SDS011;32066;49.474;11.106;2023-05-07T14:50:47;6.70;;;4.82;;
46355;SDS011;32066;49.474;11.106;2023-05-07T14:53:16;13.25;;;8.75;;
46355;SDS011;32066;49.474;11.106;2023-05-07T14:55:47;13.27;;;6.85;;
46355;SDS011;32066;49.474;11.106;2023-05-07T14:58:15;11.30;;;5.78;;
46355;SDS011;32066;49.474;11.106;2023-05-07T15:00:44;8.70;;;5.00;;